MA46 weather

Public forecast

Using degrees Fahrenheit for public forecast. Weather courtesy of forecast.io.

Closest aviation weather report (METAR) to Army National Guard Heliport

Closest report is North Central State Airport, 12.6 nm (23.3 km) S. Retrieved 2020/08/10 04:56 UTC (27 minutes ago):

KSFZ 100456Z AUTO 22004KT 10SM CLR 22/21 A3006 RMK AO2 SLP121 T02170211 403110189

Closest aviation forecast (TAF) to Army National Guard Heliport

Closest forecast is Worcester Regional Airport, 19.2 nm (35.6 km) WNW. Retrieved 2020-08-10 00:22 UTC (5 hours ago):

TAF KORH 092320Z 1000/1024 21008KT P6SM SCT060 SCT070 FM100400 23006KT P6SM SCT250 FM101300 26005KT P6SM SCT045